The Farmers Guide 72-hour weather forecast

Enter Postcode:

Overcast

(15:00)

7.5°C

IP2 0SS

Wind Soil
Date Time Weather Temp Rain Humid Cloud Press (mph) Temp Moist
26/01 15:00 7.5°C 0.0mm 71% 89% 1022mb 15nw (315 degrees) 6.7°C 0.3%
18:00 5.2°C 0.0mm 82% 50% 1024mb 13nww (299 degrees) 6.0°C 0.3%
21:00 4.6°C 0.0mm 86% 83% 1025mb 13nww (302 degrees) 5.3°C 0.3%
27/01 00:00 3.7°C 0.0mm 89% 71% 1026mb 13nww (300 degrees) 4.6°C 0.3%
03:00 3.3°C 0.0mm 91% 64% 1026mb 13nw (304 degrees) 4.0°C 0.3%
06:00 3.5°C 0.0mm 91% 77% 1027mb 13nw (309 degrees) 3.7°C 0.3%
09:00 4.2°C 0.2mm 92% 98% 1027mb 11nw (309 degrees) 3.6°C 0.3%
12:00 7.1°C 0.2mm 82% 58% 1027mb 11nw (310 degrees) 4.5°C 0.3%
15:00 7.5°C 0.0mm 82% 17% 1025mb 9nww (296 degrees) 5.5°C 0.3%
18:00 5.3°C 0.0mm 90% 50% 1025mb 7w (274 degrees) 5.3°C 0.3%
21:00 3.9°C 0.0mm 93% 70% 1023mb 7sww (249 degrees) 4.7°C 0.3%
28/01 00:00 3.9°C 0.0mm 93% 59% 1021mb 10sw (228 degrees) 4.2°C 0.3%
03:00 4.6°C 0.0mm 90% 95% 1016mb 14sw (226 degrees) 4.1°C 0.3%
06:00 5.9°C 0.0mm 87% 96% 1011mb 18sw (218 degrees) 4.3°C 0.3%
09:00 8.1°C 0.0mm 90% 100% 1005mb 23sw (215 degrees) 4.9°C 0.3%
12:00 9.9°C 1.9mm 91% 100% 999mb 28sw (225 degrees) 5.9°C 0.3%
15:00 4.5°C 1.3mm 67% 77% 998mb 27w (279 degrees) 6.1°C 0.3%
18:00 2.7°C 1.3mm 69% 39% 1001mb 20w (269 degrees) 4.9°C 0.3%
21:00 2.0°C 0.0mm 72% 44% 999mb 20sww (254 degrees) 3.9°C 0.3%
29/01 00:00 1.9°C 0.0mm 76% 66% 996mb 21sww (241 degrees) 3.2°C 0.3%
03:00 1.6°C 0.0mm 78% 93% 992mb 18sww (247 degrees) 2.8°C 0.3%
06:00 1.5°C 0.0mm 80% 96% 988mb 18sww (247 degrees) 2.4°C 0.3%
09:00 1.1°C 0.2mm 77% 91% 986mb 18w (264 degrees) 2.1°C 0.3%
12:00 2.8°C 0.4mm 69% 58% 985mb 20w (271 degrees) 2.3°C 0.3%
The Farmers Guide weather forecast is a free service for users of this website.
 
We now carry forecasts based on postcodes. Just enter your postcode and the weather page will display the forecast for the following 72 hours, broken down into three-hour intervals.
 
The forecast data provided for each three-hour period includes: a general graphic showing the likely weather conditions; average temperatures for the period; cloud cover; barometric pressure; wind speed and direction; humidity; and rainfall.
 
An indication of the likely soil temperature and soil moisture will also be displayed for most postcodes, although this data is not available for every area.
 
We hope you will find this service useful and would welcome any feedback from you.
 
 

Search

Read our full January issue here FREE!

Advertisments